createdAt,value
2023-03-24T00:03:02.485Z,94073.00
2023-03-24T00:07:02.509Z,94073.00
2023-03-24T00:11:02.685Z,94077.00
2023-03-24T00:15:02.815Z,94075.00
2023-03-24T00:19:02.999Z,94073.00
2023-03-24T00:23:03.116Z,94073.00
2023-03-24T00:27:03.303Z,94067.00
2023-03-24T00:31:03.468Z,94061.00
2023-03-24T00:35:03.604Z,94065.00
2023-03-24T00:39:03.757Z,94056.00
2023-03-24T00:43:03.905Z,94052.00
2023-03-24T00:47:04.086Z,94058.00
2023-03-24T00:51:04.215Z,94060.00
2023-03-24T00:55:04.368Z,94061.00
2023-03-24T00:59:04.536Z,94058.00
2023-03-24T01:03:04.680Z,94058.00
2023-03-24T01:07:04.816Z,94052.00
2023-03-24T01:11:04.953Z,94038.00
2023-03-24T01:15:05.129Z,94036.00
2023-03-24T01:19:05.276Z,94040.00
2023-03-24T01:23:05.415Z,94042.00
2023-03-24T01:27:05.669Z,94034.00
2023-03-24T01:31:05.733Z,94024.00
2023-03-24T01:35:05.870Z,94028.00
2023-03-24T01:39:06.024Z,94030.00
2023-03-24T01:43:06.190Z,94018.00
2023-03-24T01:47:06.340Z,94014.00
2023-03-24T01:51:06.492Z,94016.00
2023-03-24T01:55:06.647Z,94009.00
2023-03-24T01:59:06.789Z,94011.00
2023-03-24T02:03:07.033Z,94007.00
2023-03-24T02:07:07.109Z,94009.00
2023-03-24T02:11:07.244Z,94016.00
2023-03-24T02:15:07.426Z,94014.00
2023-03-24T02:19:07.569Z,94013.00
2023-03-24T02:23:07.715Z,94011.00
2023-03-24T02:27:07.867Z,94014.00
2023-03-24T02:31:08.006Z,94009.00
2023-03-24T02:35:08.153Z,94007.00
2023-03-24T02:39:08.294Z,94003.00
2023-03-24T02:43:08.459Z,93997.00
2023-03-24T02:47:08.597Z,93999.00
2023-03-24T02:51:08.772Z,94003.00
2023-03-24T02:55:08.994Z,94003.00
2023-03-24T02:59:09.072Z,93999.00
2023-03-24T03:03:09.217Z,93991.00
2023-03-24T03:07:09.369Z,93989.00
2023-03-24T03:11:09.512Z,93997.00
2023-03-24T03:15:09.686Z,93991.00
2023-03-24T03:19:09.824Z,93987.00
2023-03-24T03:23:10.043Z,93977.00
2023-03-24T03:27:10.154Z,93971.00
2023-03-24T03:31:10.358Z,93967.00
2023-03-24T03:35:10.454Z,93963.00
2023-03-24T03:39:10.606Z,93952.00
2023-03-24T03:43:10.767Z,93946.00
2023-03-24T03:47:10.915Z,93952.00
2023-03-24T03:51:14.235Z,93956.00
2023-03-24T03:55:11.004Z,93965.00
2023-03-24T03:59:10.974Z,93965.00
2023-03-24T04:03:11.015Z,93954.00
2023-03-24T04:07:10.896Z,93952.00
2023-03-24T04:11:10.857Z,93946.00
2023-03-24T04:15:10.835Z,93940.00
2023-03-24T04:19:10.790Z,93940.00
2023-03-24T04:23:12.392Z,93944.00
2023-03-24T04:27:10.714Z,93948.00
2023-03-24T04:31:10.745Z,93961.00
2023-03-24T04:35:10.640Z,93965.00
2023-03-24T04:39:10.592Z,93969.00
2023-03-24T04:43:10.562Z,93958.00
2023-03-24T04:47:10.575Z,93952.00
2023-03-24T04:51:10.469Z,93950.00
2023-03-24T04:55:10.471Z,93942.00
2023-03-24T04:59:10.437Z,93942.00
2023-03-24T05:03:10.386Z,93940.00
2023-03-24T05:07:10.331Z,93948.00
2023-03-24T05:11:10.379Z,93948.00
2023-03-24T05:15:10.492Z,93948.00
2023-03-24T05:19:10.627Z,93948.00
2023-03-24T05:23:10.765Z,93948.00
2023-03-24T05:27:10.881Z,93952.00
2023-03-24T05:31:11.135Z,93954.00
2023-03-24T05:35:11.189Z,93950.00
2023-03-24T05:39:11.298Z,93944.00
2023-03-24T05:43:11.449Z,93942.00
2023-03-24T05:47:11.576Z,93946.00
2023-03-24T05:51:11.711Z,93948.00
2023-03-24T05:55:11.969Z,93948.00
2023-03-24T05:59:12.012Z,93946.00
2023-03-24T06:03:12.196Z,93950.00
2023-03-24T06:07:12.293Z,93952.00
2023-03-24T06:11:12.413Z,93952.00
2023-03-24T06:15:12.559Z,93940.00
2023-03-24T06:19:12.716Z,93936.00
2023-03-24T06:23:12.837Z,93928.00
2023-03-24T06:27:12.992Z,93930.00
2023-03-24T06:31:13.296Z,93930.00
2023-03-24T06:35:13.250Z,93926.00
2023-03-24T06:39:13.324Z,93928.00
2023-03-24T06:43:13.796Z,93934.00
2023-03-24T06:47:13.793Z,93942.00
2023-03-24T06:51:13.323Z,93948.00
2023-03-24T06:55:13.327Z,93940.00
2023-03-24T06:59:13.450Z,93934.00
2023-03-24T07:03:13.895Z,93936.00
2023-03-24T07:11:14.471Z,93936.00
2023-03-24T07:15:13.441Z,93940.00
2023-03-24T07:19:13.405Z,93940.00
2023-03-24T07:23:13.442Z,93938.00
2023-03-24T07:27:13.424Z,93954.00
2023-03-24T07:31:13.319Z,93942.00
2023-03-24T07:35:13.308Z,93938.00
2023-03-24T07:39:13.290Z,93932.00
2023-03-24T07:43:13.190Z,93926.00
2023-03-24T07:47:13.300Z,93932.00
2023-03-24T07:51:13.302Z,93930.00
2023-03-24T07:55:13.072Z,93924.00
2023-03-24T07:59:13.082Z,93928.00
2023-03-24T08:03:13.389Z,93926.00
2023-03-24T08:07:12.947Z,93918.00
2023-03-24T08:11:12.914Z,93912.00
2023-03-24T08:15:13.627Z,93899.00
2023-03-24T08:19:13.092Z,93889.00
2023-03-24T08:23:13.075Z,93885.00
2023-03-24T08:27:13.047Z,93893.00
2023-03-24T08:31:13.016Z,93897.00
2023-03-24T08:35:13.351Z,93889.00
2023-03-24T08:39:12.901Z,93883.00
2023-03-24T08:43:12.873Z,93885.00
2023-03-24T08:47:12.833Z,93889.00
2023-03-24T08:51:12.883Z,93897.00
2023-03-24T08:55:12.813Z,93901.00
2023-03-24T08:59:12.846Z,93901.00
2023-03-24T09:03:12.740Z,93897.00
2023-03-24T09:07:12.642Z,93893.00
2023-03-24T09:11:12.786Z,93889.00
2023-03-24T09:15:13.476Z,93881.00
2023-03-24T09:19:12.839Z,93883.00
2023-03-24T09:23:12.850Z,93889.00
2023-03-24T09:27:12.648Z,93887.00
2023-03-24T09:31:12.606Z,93881.00
2023-03-24T09:35:12.551Z,93883.00
2023-03-24T09:39:12.515Z,93885.00
2023-03-24T09:43:12.989Z,93889.00
2023-03-24T09:47:12.480Z,93889.00
2023-03-24T09:51:12.838Z,93885.00
2023-03-24T09:55:12.393Z,93881.00
2023-03-24T09:59:12.354Z,93893.00
2023-03-24T10:03:12.567Z,93897.00
2023-03-24T10:07:12.860Z,93895.00
2023-03-24T10:11:12.862Z,93895.00
2023-03-24T10:15:12.882Z,93897.00
2023-03-24T10:19:12.862Z,93907.00
2023-03-24T10:23:12.298Z,93926.00
2023-03-24T10:27:12.291Z,93936.00
2023-03-24T10:31:12.226Z,93961.00
2023-03-24T10:35:12.369Z,93965.00
2023-03-24T10:39:19.054Z,93969.00
2023-03-24T10:43:13.449Z,93973.00
2023-03-24T10:47:12.074Z,93979.00
2023-03-24T10:51:12.050Z,93987.00
2023-03-24T10:55:12.018Z,93985.00
2023-03-24T10:59:11.975Z,93981.00
2023-03-24T11:03:12.200Z,93959.00
2023-03-24T11:07:12.368Z,93952.00
2023-03-24T11:11:12.369Z,93950.00
2023-03-24T11:15:20.153Z,93938.00
2023-03-24T11:19:15.259Z,93932.00
2023-03-24T11:23:11.917Z,93928.00
2023-03-24T11:27:12.394Z,93922.00
2023-03-24T11:31:12.372Z,93920.00
2023-03-24T11:35:12.398Z,93918.00
2023-03-24T11:39:11.943Z,93911.00
2023-03-24T11:43:11.883Z,93911.00
2023-03-24T11:47:11.940Z,93899.00
2023-03-24T11:51:11.847Z,93897.00
2023-03-24T11:55:11.761Z,93895.00
2023-03-24T11:59:11.752Z,93893.00
2023-03-24T12:03:12.054Z,93893.00
2023-03-24T12:07:11.963Z,93889.00
2023-03-24T12:11:11.906Z,93893.00
2023-03-24T12:15:24.735Z,93899.00
2023-03-24T12:19:12.829Z,93889.00
2023-03-24T12:23:11.833Z,93862.00
2023-03-24T12:27:11.841Z,93854.00
2023-03-24T12:31:12.040Z,93846.00
2023-03-24T12:35:12.183Z,93834.00
2023-03-24T12:39:12.318Z,93828.00
2023-03-24T12:43:12.474Z,93820.00
2023-03-24T12:47:12.638Z,93807.00
2023-03-24T12:51:12.793Z,93801.00
2023-03-24T12:55:12.994Z,93801.00
2023-03-24T12:59:13.160Z,93783.00
2023-03-24T13:03:13.415Z,93772.00
2023-03-24T13:07:13.496Z,93768.00
2023-03-24T13:11:26.564Z,93766.00
2023-03-24T13:15:14.648Z,93758.00
2023-03-24T13:19:13.725Z,93752.00
2023-03-24T13:23:13.672Z,93734.00
2023-03-24T13:27:13.880Z,93730.00
2023-03-24T13:31:14.076Z,93717.00
2023-03-24T13:35:14.281Z,93711.00
2023-03-24T13:39:14.489Z,93709.00
2023-03-24T13:43:14.688Z,93701.00
2023-03-24T13:47:14.865Z,93703.00
2023-03-24T13:51:15.044Z,93697.00
2023-03-24T13:55:15.260Z,93683.00
2023-03-24T13:59:15.439Z,93671.00
2023-03-24T14:03:15.685Z,93664.00
2023-03-24T14:07:15.804Z,93654.00
2023-03-24T14:11:15.993Z,93654.00
2023-03-24T14:15:16.203Z,93652.00
2023-03-24T14:19:16.364Z,93642.00
2023-03-24T14:23:16.562Z,93632.00
2023-03-24T14:27:16.751Z,93617.00
2023-03-24T14:31:17.044Z,93605.00
2023-03-24T14:35:17.160Z,93599.00
2023-03-24T14:39:17.335Z,93587.00
2023-03-24T14:43:17.611Z,93579.00
2023-03-24T14:47:17.724Z,93587.00
2023-03-24T14:51:17.886Z,93574.00
2023-03-24T14:55:18.121Z,93570.00
2023-03-24T14:59:18.994Z,93568.00
2023-03-24T15:03:18.689Z,93572.00
2023-03-24T15:07:18.490Z,93568.00
2023-03-24T15:11:18.444Z,93566.00
2023-03-24T15:15:18.451Z,93554.00
2023-03-24T15:19:18.359Z,93550.00
2023-03-24T15:23:18.338Z,93542.00
2023-03-24T15:27:18.315Z,93544.00
2023-03-24T15:31:18.297Z,93554.00
2023-03-24T15:35:18.257Z,93552.00
2023-03-24T15:39:18.185Z,93540.00
2023-03-24T15:43:18.283Z,93542.00
2023-03-24T15:47:18.228Z,93548.00
2023-03-24T15:51:18.193Z,93560.00
2023-03-24T15:55:18.179Z,93570.00
2023-03-24T15:59:18.134Z,93581.00
2023-03-24T16:03:18.279Z,93597.00
2023-03-24T16:07:18.038Z,93597.00
2023-03-24T16:11:18.027Z,93617.00
2023-03-24T16:15:18.080Z,93599.00
2023-03-24T16:19:17.936Z,93599.00
2023-03-24T16:23:17.903Z,93666.00
2023-03-24T16:27:17.868Z,93697.00
2023-03-24T16:31:17.913Z,93750.00
2023-03-24T16:35:17.830Z,93781.00
2023-03-24T16:39:17.745Z,93789.00
2023-03-24T16:43:17.729Z,93820.00
2023-03-24T17:15:17.781Z,93930.00
2023-03-24T17:19:17.764Z,93932.00
2023-03-24T17:23:17.729Z,93926.00
2023-03-24T17:27:17.790Z,93930.00
2023-03-24T17:31:17.780Z,93920.00
2023-03-24T17:35:17.793Z,93911.00
2023-03-24T17:39:17.666Z,93914.00
2023-03-24T17:43:17.672Z,93918.00
2023-03-24T17:47:17.682Z,93912.00
2023-03-24T17:51:17.675Z,93930.00
2023-03-24T17:55:17.662Z,93928.00
2023-03-24T17:59:17.669Z,93926.00
2023-03-24T18:03:17.675Z,93926.00
2023-03-24T18:07:17.706Z,93920.00
2023-03-24T18:11:17.713Z,93911.00
2023-03-24T18:15:17.713Z,93926.00
2023-03-24T18:19:17.749Z,93932.00
2023-03-24T18:23:17.775Z,93936.00
